Time;durP1;ratioP1;P1;durP2;ratioP2;P2;SDS_P1;SDS_P2;PMS_P1;PMS_P2;Temp;Humidity;BMP_temperature;BMP_pressure;BME280_temperature;BME280_humidity;BME280_pressure;Samples;Min_cycle;Max_cycle;Signal;HPM_P1;HPM_P2
2021/07/09 00:01:56;;;;;;;12.88;8.35;;;;;12.10;101174.00;;;;5089866;28;20418;-76
2021/07/09 00:04:23;;;;;;;13.02;9.90;;;;;12.10;101210.00;;;;5090630;28;20105;-76
2021/07/09 00:06:51;;;;;;;16.95;10.27;;;;;12.10;101184.00;;;;5090466;28;20028;-76
2021/07/09 00:09:18;;;;;;;14.90;8.65;;;;;12.10;101205.00;;;;5089884;28;20399;-77
2021/07/09 00:11:47;;;;;;;12.65;8.98;;;;;12.10;101204.00;;;;5090362;28;20028;-76
2021/07/09 00:14:16;;;;;;;10.60;7.68;;;;;12.10;101202.00;;;;5089837;28;20380;-77
2021/07/09 00:16:47;;;;;;;12.23;7.43;;;;;12.00;101224.00;;;;5097042;28;20107;-77
2021/07/09 00:19:15;;;;;;;13.73;8.27;;;;;12.10;101211.00;;;;5110364;28;20433;-77
2021/07/09 00:21:42;;;;;;;15.80;9.18;;;;;12.00;101219.00;;;;5110361;28;20388;-77
2021/07/09 00:24:09;;;;;;;14.85;8.75;;;;;12.00;101215.00;;;;5110182;28;20035;-77
2021/07/09 00:26:36;;;;;;;14.38;8.20;;;;;12.00;101237.00;;;;5110301;28;20031;-77
2021/07/09 00:29:04;;;;;;;21.02;8.98;;;;;12.10;101230.00;;;;5110001;28;20055;-77
2021/07/09 00:31:32;;;;;;;18.35;10.63;;;;;12.10;101226.00;;;;5110082;28;20499;-77
2021/07/09 00:34:05;;;;;;;17.55;9.85;;;;;12.10;101228.00;;;;5110409;28;20027;-77
2021/07/09 00:36:33;;;;;;;17.67;10.50;;;;;12.00;101225.00;;;;5110093;28;20028;-76
2021/07/09 00:39:00;;;;;;;24.83;9.68;;;;;12.10;101219.00;;;;5110298;28;20100;-77
2021/07/09 00:41:28;;;;;;;16.20;9.85;;;;;12.10;101211.00;;;;5110933;28;20544;-77
2021/07/09 00:43:55;;;;;;;13.75;8.68;;;;;12.20;101233.00;;;;5110448;28;20031;-77
2021/07/09 00:46:39;;;;;;;13.18;7.97;;;;;12.10;101212.00;;;;5109947;28;20505;-76
2021/07/09 00:49:07;;;;;;;15.50;7.18;;;;;12.00;101206.00;;;;5109651;28;20039;-76
2021/07/09 00:51:34;;;;;;;16.52;7.10;;;;;12.00;101216.00;;;;5109416;28;20036;-76
2021/07/09 00:54:02;;;;;;;20.65;8.98;;;;;12.00;101241.00;;;;5109645;28;20127;-76
2021/07/09 00:56:28;;;;;;;18.95;8.18;;;;;12.00;101231.00;;;;5109510;28;20084;-77
2021/07/09 00:58:55;;;;;;;8.95;6.28;;;;;11.90;101216.00;;;;5109854;28;20028;-76
2021/07/09 01:01:22;;;;;;;10.95;5.82;;;;;12.00;101199.00;;;;5109690;28;20024;-76
2021/07/09 01:03:49;;;;;;;25.60;10.05;;;;;12.10;101199.00;;;;5109681;28;20051;-76
2021/07/09 01:06:16;;;;;;;18.70;11.40;;;;;12.10;101214.00;;;;5110271;28;20428;-76
2021/07/09 01:08:43;;;;;;;16.77;9.63;;;;;12.00;101202.00;;;;5109578;28;20031;-77
2021/07/09 01:11:11;;;;;;;16.20;8.43;;;;;11.90;101203.00;;;;5108675;28;20448;-77
2021/07/09 01:13:40;;;;;;;12.15;8.43;;;;;11.80;101220.00;;;;5107692;28;20043;-77
2021/07/09 01:16:07;;;;;;;18.92;7.72;;;;;11.90;101200.00;;;;5108246;28;20106;-76
2021/07/09 01:18:33;;;;;;;15.60;9.20;;;;;11.90;101227.00;;;;5108869;28;20036;-77
2021/07/09 01:21:07;;;;;;;14.60;8.73;;;;;11.90;101238.00;;;;5109458;28;20700;-76
2021/07/09 01:23:34;;;;;;;23.13;8.18;;;;;11.90;101215.00;;;;5109483;28;20487;-76
2021/07/09 01:26:01;;;;;;;10.38;8.43;;;;;11.90;101234.00;;;;5108999;28;20084;-76
2021/07/09 01:28:27;;;;;;;33.03;10.77;;;;;11.90;101206.00;;;;5109378;28;20027;-76
2021/07/09 01:30:54;;;;;;;24.10;10.07;;;;;12.00;101231.00;;;;5109441;28;20074;-76
2021/07/09 01:33:21;;;;;;;15.63;9.10;;;;;11.90;101221.00;;;;5109187;28;20491;-76
2021/07/09 01:35:47;;;;;;;14.60;8.25;;;;;11.80;101242.00;;;;5109522;28;20028;-76
2021/07/09 01:38:14;;;;;;;14.02;8.52;;;;;11.80;101240.00;;;;5109207;28;20502;-76
2021/07/09 01:40:41;;;;;;;13.25;8.68;;;;;11.90;101238.00;;;;5109387;28;20036;-76
2021/07/09 01:43:09;;;;;;;15.20;9.35;;;;;11.80;101214.00;;;;5108904;28;20028;-76
2021/07/09 01:45:36;;;;;;;16.85;9.80;;;;;11.90;101221.00;;;;5090604;28;20031;-76
2021/07/09 01:48:04;;;;;;;22.40;9.38;;;;;11.90;101243.00;;;;5109007;28;20036;-76
2021/07/09 01:50:32;;;;;;;13.55;8.35;;;;;11.90;101240.00;;;;5109785;28;20396;-77
2021/07/09 01:52:59;;;;;;;14.65;8.68;;;;;11.70;101239.00;;;;5108879;28;20030;-77
2021/07/09 01:55:26;;;;;;;18.25;8.75;;;;;11.70;101253.00;;;;5108964;28;20047;-77
2021/07/09 01:57:53;;;;;;;14.73;8.65;;;;;11.70;101250.00;;;;5108342;28;20114;-76
2021/07/09 02:00:22;;;;;;;19.75;9.18;;;;;11.70;101254.00;;;;5108165;28;20023;-76
2021/07/09 02:02:49;;;;;;;25.42;9.23;;;;;11.70;101238.00;;;;5108441;28;20541;-77
2021/07/09 02:05:18;;;;;;;15.18;9.13;;;;;11.60;101232.00;;;;5108843;28;20023;-76
2021/07/09 02:07:47;;;;;;;13.20;8.90;;;;;11.50;101233.00;;;;5107932;28;20049;-75
2021/07/09 02:10:16;;;;;;;17.67;8.38;;;;;11.50;101260.00;;;;5108695;28;20566;-75
2021/07/09 02:12:44;;;;;;;16.67;8.57;;;;;11.40;101251.00;;;;5108596;28;20487;-76
2021/07/09 02:15:13;;;;;;;20.30;9.20;;;;;11.40;101235.00;;;;5108246;28;20027;-76
2021/07/09 02:17:40;;;;;;;20.08;9.80;;;;;11.40;101227.00;;;;5108264;28;20029;-77
2021/07/09 02:20:09;;;;;;;15.48;9.25;;;;;11.30;101213.00;;;;5108265;28;20040;-77
2021/07/09 02:22:35;;;;;;;15.63;9.45;;;;;11.30;101245.00;;;;5108229;28;20035;-77
2021/07/09 02:25:05;;;;;;;16.15;8.40;;;;;11.30;101228.00;;;;5108002;28;20066;-76
2021/07/09 02:27:36;;;;;;;14.57;8.88;;;;;11.30;101249.00;;;;5108195;28;20019;-76
2021/07/09 02:30:07;;;;;;;16.10;9.45;;;;;11.20;101220.00;;;;5108201;28;20094;-76
2021/07/09 02:32:33;;;;;;;21.15;10.07;;;;;11.20;101243.00;;;;5107984;28;20102;-76
2021/07/09 02:35:00;;;;;;;14.15;9.65;;;;;11.20;101216.00;;;;5089114;28;20159;-76
2021/07/09 02:37:27;;;;;;;19.75;10.40;;;;;11.10;101238.00;;;;5108803;28;20395;-76
2021/07/09 02:39:53;;;;;;;17.05;10.27;;;;;11.10;101247.00;;;;5107626;28;20024;-76
2021/07/09 02:42:20;;;;;;;20.88;10.15;;;;;11.10;101228.00;;;;5108078;28;20027;-76
2021/07/09 02:44:46;;;;;;;18.05;9.93;;;;;11.10;101234.00;;;;5107598;28;20398;-76
2021/07/09 02:47:13;;;;;;;17.05;10.32;;;;;11.10;101224.00;;;;5107533;28;20031;-76
2021/07/09 02:49:39;;;;;;;21.63;12.77;;;;;11.20;101249.00;;;;5106897;28;20035;-76
2021/07/09 02:52:07;;;;;;;19.25;11.40;;;;;11.10;101228.00;;;;5108150;28;20112;-76
2021/07/09 02:54:34;;;;;;;19.17;11.50;;;;;11.00;101222.00;;;;5107401;28;20114;-76
2021/07/09 02:57:01;;;;;;;18.58;9.55;;;;;10.90;101250.00;;;;5107489;28;20058;-76
2021/07/09 02:59:28;;;;;;;16.88;10.35;;;;;11.00;101219.00;;;;5107758;28;20027;-76
2021/07/09 03:01:54;;;;;;;23.13;10.80;;;;;11.00;101215.00;;;;5107324;28;20126;-76
2021/07/09 03:04:21;;;;;;;20.98;12.15;;;;;11.00;101235.00;;;;5107729;28;20027;-76
2021/07/09 03:06:47;;;;;;;21.85;11.15;;;;;11.10;101240.00;;;;5107441;28;20031;-76
2021/07/09 03:09:15;;;;;;;20.55;10.70;;;;;11.20;101216.00;;;;5106988;28;20027;-76
2021/07/09 03:11:42;;;;;;;21.17;12.80;;;;;11.10;101228.00;;;;5089365;28;20436;-76
2021/07/09 03:14:09;;;;;;;15.70;10.93;;;;;11.00;101220.00;;;;5106850;28;20031;-76
2021/07/09 03:16:36;;;;;;;13.85;6.88;;;;;10.90;101212.00;;;;5107205;28;20020;-76
2021/07/09 03:19:06;;;;;;;26.45;10.85;;;;;10.90;101203.00;;;;5107616;28;20479;-76
2021/07/09 03:21:34;;;;;;;16.58;11.30;;;;;10.90;101222.00;;;;5107843;28;20398;-76
2021/07/09 03:24:01;;;;;;;26.83;13.60;;;;;10.90;101228.00;;;;5107628;28;20020;-76
2021/07/09 03:26:28;;;;;;;22.00;14.10;;;;;10.90;101221.00;;;;5107550;28;20034;-76
2021/07/09 03:28:57;;;;;;;22.20;14.85;;;;;10.70;101234.00;;;;5107435;28;20034;-76
2021/07/09 03:31:32;;;;;;;28.15;14.30;;;;;10.60;101194.00;;;;5107411;28;20031;-76
2021/07/09 03:33:59;;;;;;;27.67;13.60;;;;;10.50;101204.00;;;;5107436;28;20023;-76
2021/07/09 03:36:26;;;;;;;20.27;12.82;;;;;10.60;101209.00;;;;5106930;28;20027;-76
2021/07/09 03:38:55;;;;;;;81.25;15.95;;;;;10.70;101179.00;;;;5107171;28;20035;-76
2021/07/09 03:41:22;;;;;;;128.10;20.35;;;;;10.90;101225.00;;;;5107113;28;20401;-78
2021/07/09 03:43:49;;;;;;;66.47;20.30;;;;;10.90;101217.00;;;;5113506;28;20023;-75
2021/07/09 03:46:15;;;;;;;145.07;21.17;;;;;10.90;101193.00;;;;5114399;28;20020;-76
2021/07/09 03:48:42;;;;;;;120.43;20.27;;;;;10.90;101214.00;;;;5108970;28;20406;-76
2021/07/09 03:51:09;;;;;;;89.85;19.15;;;;;10.90;101235.00;;;;5107219;28;20023;-76
2021/07/09 03:53:36;;;;;;;167.77;19.70;;;;;10.80;101224.00;;;;5106758;28;20030;-77
2021/07/09 03:56:03;;;;;;;153.40;19.25;;;;;10.80;101252.00;;;;5107182;28;20094;-77
2021/07/09 03:58:33;;;;;;;52.65;16.90;;;;;10.70;101219.00;;;;5089320;28;20525;-76
2021/07/09 04:01:00;;;;;;;107.72;18.27;;;;;10.70;101255.00;;;;5107075;28;20027;-75
2021/07/09 04:03:26;;;;;;;332.20;20.92;;;;;10.70;101217.00;;;;5106922;28;20054;-76
2021/07/09 04:05:53;;;;;;;63.70;16.92;;;;;10.80;101223.00;;;;5106607;28;20039;-77
2021/07/09 04:08:19;;;;;;;41.70;16.17;;;;;11.00;101234.00;;;;5107567;28;20062;-76
2021/07/09 04:10:46;;;;;;;34.25;14.90;;;;;10.80;101213.00;;;;5106986;28;20052;-76
2021/07/09 04:13:13;;;;;;;35.33;15.38;;;;;10.80;101225.00;;;;5106999;28;20055;-76
2021/07/09 04:15:40;;;;;;;30.70;15.63;;;;;10.60;101205.00;;;;5106580;28;20508;-76
2021/07/09 04:18:07;;;;;;;44.42;14.45;;;;;10.40;101225.00;;;;5106631;28;20498;-76
2021/07/09 04:20:33;;;;;;;36.25;16.08;;;;;10.40;101232.00;;;;5107253;28;20115;-76
2021/07/09 04:23:00;;;;;;;42.28;16.25;;;;;10.50;101237.00;;;;5107870;28;20031;-76
2021/07/09 04:25:26;;;;;;;33.17;15.73;;;;;10.40;101246.00;;;;5110787;28;20034;-76
2021/07/09 04:27:53;;;;;;;28.25;14.60;;;;;10.30;101240.00;;;;5110835;28;20020;-76
2021/07/09 04:30:21;;;;;;;52.88;15.18;;;;;10.30;101238.00;;;;5109892;28;20055;-76
2021/07/09 04:32:47;;;;;;;94.40;16.38;;;;;10.20;101208.00;;;;5110671;28;20019;-75
2021/07/09 04:35:14;;;;;;;120.10;16.00;;;;;10.30;101224.00;;;;5110302;28;20483;-76
2021/07/09 04:37:41;;;;;;;146.10;17.90;;;;;10.30;101224.00;;;;5110503;28;20034;-75
2021/07/09 04:40:09;;;;;;;116.75;14.23;;;;;10.30;101232.00;;;;5109940;28;20035;-76
2021/07/09 04:42:35;;;;;;;309.73;18.58;;;;;10.40;101225.00;;;;5110185;28;20459;-76
2021/07/09 04:45:03;;;;;;;172.50;17.55;;;;;10.50;101209.00;;;;5110193;28;20036;-76
2021/07/09 04:47:30;;;;;;;83.03;14.68;;;;;10.50;101198.00;;;;5109981;28;20028;-76
2021/07/09 04:49:56;;;;;;;116.88;15.50;;;;;10.50;101221.00;;;;5110170;28;20027;-76
2021/07/09 04:52:23;;;;;;;76.85;13.57;;;;;10.40;101202.00;;;;5109168;28;20031;-76
2021/07/09 04:54:49;;;;;;;122.03;14.95;;;;;10.40;101196.00;;;;5109645;28;20119;-76
2021/07/09 04:57:16;;;;;;;140.27;13.80;;;;;10.30;101222.00;;;;5109952;28;20019;-76
2021/07/09 04:59:42;;;;;;;112.55;14.55;;;;;10.20;101196.00;;;;5110128;28;20481;-76
2021/07/09 05:02:09;;;;;;;102.68;13.27;;;;;10.10;101225.00;;;;5110275;28;20126;-76
2021/07/09 05:04:35;;;;;;;68.45;12.68;;;;;10.10;101215.00;;;;5109781;28;20031;-76
2021/07/09 05:07:02;;;;;;;125.43;13.90;;;;;10.00;101209.00;;;;5109275;28;20039;-76
2021/07/09 05:09:29;;;;;;;66.32;13.18;;;;;10.00;101221.00;;;;5110076;28;20042;-76
2021/07/09 05:11:56;;;;;;;49.65;12.32;;;;;9.90;101195.00;;;;5109247;28;20088;-75
2021/07/09 05:14:22;;;;;;;93.35;13.27;;;;;9.90;101207.00;;;;5109073;28;20031;-76
2021/07/09 05:16:50;;;;;;;103.10;13.35;;;;;9.90;101184.00;;;;5109735;28;20050;-76
2021/07/09 05:19:17;;;;;;;88.80;14.43;;;;;9.90;101184.00;;;;5108673;28;20023;-76
2021/07/09 05:21:43;;;;;;;38.47;13.18;;;;;9.80;101179.00;;;;5109189;28;20035;-76
2021/07/09 05:24:12;;;;;;;39.00;12.48;;;;;9.70;101194.00;;;;5109424;28;20027;-76
2021/07/09 05:26:40;;;;;;;34.95;12.30;;;;;9.60;101198.00;;;;5109650;28;20031;-75
2021/07/09 05:29:06;;;;;;;44.47;12.05;;;;;9.60;101178.00;;;;5109194;28;20034;-76
2021/07/09 05:31:34;;;;;;;75.95;9.60;;;;;9.50;101198.00;;;;5109604;28;20057;-76
2021/07/09 05:34:02;;;;;;;26.05;9.82;;;;;9.50;101198.00;;;;5107802;28;20030;-75
2021/07/09 05:36:28;;;;;;;66.38;10.25;;;;;9.40;101190.00;;;;5109586;28;20024;-76
2021/07/09 05:38:55;;;;;;;14.10;9.45;;;;;9.40;101171.00;;;;5109258;28;20038;-75
2021/07/09 05:41:22;;;;;;;16.33;9.27;;;;;9.40;101204.00;;;;5108910;28;20596;-76
2021/07/09 05:43:49;;;;;;;13.63;9.82;;;;;9.50;101180.00;;;;5108735;28;20499;-76
2021/07/09 05:46:16;;;;;;;21.50;11.32;;;;;9.50;101151.00;;;;5108625;28;20059;-76
2021/07/09 05:48:42;;;;;;;12.95;8.88;;;;;9.50;101157.00;;;;5109017;28;20028;-75
2021/07/09 05:51:09;;;;;;;19.25;11.30;;;;;9.50;101177.00;;;;5108590;28;20380;-75
2021/07/09 05:53:36;;;;;;;18.52;10.00;;;;;9.50;101150.00;;;;5108396;28;20512;-76
2021/07/09 05:56:02;;;;;;;14.45;8.98;;;;;9.50;101160.00;;;;5108522;28;20518;-76
2021/07/09 05:58:29;;;;;;;10.13;6.68;;;;;9.50;101170.00;;;;5108512;28;20067;-76
2021/07/09 06:00:55;;;;;;;11.90;8.77;;;;;9.50;101152.00;;;;5108682;28;20016;-76
2021/07/09 06:03:22;;;;;;;15.68;10.27;;;;;9.50;101132.00;;;;5109234;28;20464;-75
2021/07/09 06:05:48;;;;;;;24.27;10.48;;;;;9.50;101164.00;;;;5108820;28;20031;-76
2021/07/09 06:08:15;;;;;;;22.17;11.20;;;;;9.50;101164.00;;;;5090058;28;20615;-76
2021/07/09 06:10:42;;;;;;;16.75;11.48;;;;;9.40;101156.00;;;;5108272;28;20965;-76
2021/07/09 06:13:09;;;;;;;17.00;11.30;;;;;9.60;101174.00;;;;5108340;28;20518;-76
2021/07/09 06:15:36;;;;;;;23.48;13.07;;;;;9.70;101164.00;;;;5108207;28;20027;-76
2021/07/09 06:18:02;;;;;;;21.27;13.27;;;;;9.80;101153.00;;;;5107822;28;20107;-76
2021/07/09 06:20:29;;;;;;;26.08;12.20;;;;;9.70;101163.00;;;;5108185;28;20035;-76
2021/07/09 06:22:55;;;;;;;20.77;10.18;;;;;9.70;101139.00;;;;5108165;28;20073;-76
2021/07/09 06:25:22;;;;;;;18.48;10.93;;;;;9.60;101124.00;;;;5107992;28;20061;-76
2021/07/09 06:27:51;;;;;;;16.58;9.50;;;;;9.40;101135.00;;;;5090344;28;20499;-75
2021/07/09 06:30:18;;;;;;;14.02;9.45;;;;;9.20;101150.00;;;;5107994;28;20024;-76
2021/07/09 06:32:44;;;;;;;20.30;9.98;;;;;9.20;101145.00;;;;5108252;28;20123;-76
2021/07/09 06:35:11;;;;;;;22.80;10.90;;;;;9.20;101143.00;;;;5107707;28;20035;-76
2021/07/09 06:37:38;;;;;;;21.00;10.88;;;;;9.20;101143.00;;;;5107792;28;20028;-76
2021/07/09 06:40:07;;;;;;;21.50;10.50;;;;;9.10;101159.00;;;;5090021;28;20042;-76
2021/07/09 06:42:34;;;;;;;19.33;10.75;;;;;9.10;101172.00;;;;5107741;28;20503;-76
2021/07/09 06:45:00;;;;;;;19.65;10.02;;;;;9.10;101137.00;;;;5107682;28;20028;-76
2021/07/09 06:47:27;;;;;;;15.02;9.80;;;;;9.00;101161.00;;;;5107540;28;20019;-76
2021/07/09 06:49:54;;;;;;;19.50;10.63;;;;;9.10;101121.00;;;;5108111;28;20027;-76
2021/07/09 06:52:20;;;;;;;16.92;9.50;;;;;9.10;101167.00;;;;5107569;28;20036;-76
2021/07/09 06:54:47;;;;;;;24.02;9.52;;;;;9.00;101161.00;;;;5108617;28;20027;-76
2021/07/09 06:57:13;;;;;;;12.73;8.00;;;;;9.10;101144.00;;;;5107826;28;20069;-76
2021/07/09 06:59:42;;;;;;;12.45;8.20;;;;;9.10;101174.00;;;;5107751;28;20502;-76
2021/07/09 07:02:09;;;;;;;10.90;7.32;;;;;9.00;101144.00;;;;5107511;28;20028;-76
2021/07/09 07:04:36;;;;;;;9.90;7.30;;;;;9.00;101119.00;;;;5107188;28;20498;-76
2021/07/09 07:07:04;;;;;;;12.57;7.13;;;;;8.90;101150.00;;;;5107654;28;20108;-76
2021/07/09 07:09:32;;;;;;;10.20;7.35;;;;;8.90;101161.00;;;;5089531;28;20081;-76
2021/07/09 07:12:04;;;;;;;10.85;6.57;;;;;8.90;101162.00;;;;5089203;28;20039;-76
2021/07/09 07:14:33;;;;;;;14.23;8.15;;;;;8.90;101156.00;;;;5106728;28;20032;-76
2021/07/09 07:17:00;;;;;;;10.68;7.47;;;;;8.80;101127.00;;;;5107918;28;20034;-76
2021/07/09 07:19:28;;;;;;;9.50;7.05;;;;;8.80;101135.00;;;;5107485;28;20088;-76
2021/07/09 07:21:58;;;;;;;12.85;8.23;;;;;8.70;101157.00;;;;5106812;28;20478;-75
2021/07/09 07:24:25;;;;;;;10.23;6.32;;;;;8.80;101136.00;;;;5088826;28;20031;-76
2021/07/09 07:26:52;;;;;;;12.07;8.52;;;;;8.80;101132.00;;;;5089058;28;20084;-76
2021/07/09 07:29:21;;;;;;;12.55;8.07;;;;;8.80;101152.00;;;;5106653;28;20046;-76
2021/07/09 07:31:58;;;;;;;11.50;7.28;;;;;8.70;101134.00;;;;5090173;28;20039;-76
2021/07/09 07:34:24;;;;;;;12.20;8.70;;;;;8.70;101105.00;;;;5106888;28;20028;-76
2021/07/09 07:36:52;;;;;;;19.55;9.70;;;;;8.80;101139.00;;;;5088727;28;20044;-76
2021/07/09 07:39:19;;;;;;;11.98;7.70;;;;;8.80;101154.00;;;;5071924;28;20059;-76
2021/07/09 07:41:46;;;;;;;7.97;5.68;;;;;8.90;101134.00;;;;5089278;28;20050;-76
2021/07/09 07:44:14;;;;;;;13.98;9.32;;;;;8.90;101153.00;;;;5107459;28;20487;-76
2021/07/09 07:46:41;;;;;;;8.35;6.10;;;;;8.90;101128.00;;;;5072434;28;20035;-76
2021/07/09 07:49:07;;;;;;;17.30;9.38;;;;;8.80;101122.00;;;;5107357;28;20028;-76
2021/07/09 07:51:34;;;;;;;16.70;8.52;;;;;8.80;101132.00;;;;5107072;28;20119;-76
2021/07/09 07:54:01;;;;;;;11.52;5.55;;;;;8.70;101155.00;;;;5088520;28;20043;-76
2021/07/09 07:56:27;;;;;;;13.13;7.13;;;;;8.70;101155.00;;;;5088867;28;20147;-76
2021/07/09 07:58:54;;;;;;;16.38;8.48;;;;;8.70;101125.00;;;;5109445;28;20115;-76
2021/07/09 08:01:21;;;;;;;14.18;7.72;;;;;8.70;101131.00;;;;5092859;28;20433;-76
2021/07/09 08:03:50;;;;;;;12.18;7.90;;;;;8.70;101134.00;;;;5092050;28;20047;-76
2021/07/09 08:06:18;;;;;;;73.40;10.82;;;;;8.70;101137.00;;;;5110045;28;20024;-76
2021/07/09 08:08:44;;;;;;;88.18;10.70;;;;;8.80;101150.00;;;;5110670;28;20491;-76
2021/07/09 08:11:11;;;;;;;199.95;13.30;;;;;8.80;101152.00;;;;5110701;28;20046;-76
2021/07/09 08:13:39;;;;;;;56.85;11.15;;;;;8.80;101143.00;;;;5110546;28;20555;-76
2021/07/09 08:16:07;;;;;;;113.00;8.65;;;;;8.80;101122.00;;;;5109827;28;20073;-76
2021/07/09 08:18:35;;;;;;;140.82;10.50;;;;;8.70;101116.00;;;;5110006;28;20031;-76
2021/07/09 08:21:03;;;;;;;104.18;9.75;;;;;8.70;101138.00;;;;5110357;28;20027;-76
2021/07/09 08:23:31;;;;;;;143.73;10.43;;;;;8.60;101134.00;;;;5111085;28;20063;-76
2021/07/09 08:25:58;;;;;;;85.50;9.27;;;;;8.50;101145.00;;;;5110666;28;20036;-76
2021/07/09 08:28:26;;;;;;;182.50;11.18;;;;;8.50;101123.00;;;;5111294;28;20042;-76
2021/07/09 08:30:53;;;;;;;118.80;8.90;;;;;8.50;101120.00;;;;5090980;28;20455;-76
2021/07/09 08:33:20;;;;;;;59.30;8.95;;;;;8.40;101134.00;;;;5109933;28;20059;-76
2021/07/09 08:35:47;;;;;;;49.13;7.25;;;;;8.30;101121.00;;;;5091748;28;20055;-76
2021/07/09 08:38:13;;;;;;;63.13;7.97;;;;;8.30;101137.00;;;;5110496;28;20108;-76
2021/07/09 08:40:40;;;;;;;106.75;11.13;;;;;8.30;101134.00;;;;5109811;28;20114;-76
2021/07/09 08:43:07;;;;;;;127.25;11.77;;;;;8.20;101129.00;;;;5109686;28;20024;-76
2021/07/09 08:45:33;;;;;;;133.35;13.35;;;;;8.20;101141.00;;;;5091429;28;20047;-76
2021/07/09 08:48:01;;;;;;;145.38;13.50;;;;;8.20;101134.00;;;;5109040;28;20036;-76
2021/07/09 08:50:28;;;;;;;81.32;10.65;;;;;8.10;101133.00;;;;5109747;28;20019;-76
2021/07/09 08:53:03;;;;;;;41.80;8.70;;;;;8.00;101135.00;;;;5109456;28;20039;-76
2021/07/09 08:55:31;;;;;;;32.95;9.55;;;;;7.90;101135.00;;;;5109387;28;20308;-76
2021/07/09 08:57:58;;;;;;;31.90;8.88;;;;;7.90;101141.00;;;;5109781;28;20023;-76
2021/07/09 09:00:35;;;;;;;23.55;8.75;;;;;7.90;101165.00;;;;5109259;28;20097;-76
2021/07/09 09:03:17;;;;;;;15.60;9.13;;;;;7.80;101150.00;;;;5090782;28;20058;-76
2021/07/09 09:05:45;;;;;;;28.13;9.52;;;;;7.80;101180.00;;;;5109562;28;20428;-76
2021/07/09 09:08:13;;;;;;;10.43;8.48;;;;;7.80;101186.00;;;;5109777;28;20015;-76
2021/07/09 09:10:47;;;;;;;10.77;8.68;;;;;7.80;101155.00;;;;5110005;28;20432;-77
2021/07/09 09:13:17;;;;;;;20.30;7.40;;;;;7.70;101173.00;;;;5109804;28;20024;-77
2021/07/09 09:16:05;;;;;;;7.28;6.45;;;;;7.60;101147.00;;;;5109718;28;20411;-77
2021/07/09 09:18:35;;;;;;;10.73;6.82;;;;;7.60;101167.00;;;;5108603;28;20039;-77
2021/07/09 09:21:19;;;;;;;10.82;6.75;;;;;7.60;101181.00;;;;5109395;28;20027;-77
2021/07/09 09:23:50;;;;;;;9.23;6.57;;;;;7.60;101171.00;;;;5110091;28;20498;-76
2021/07/09 09:26:38;;;;;;;8.23;7.35;;;;;7.60;101178.00;;;;5109503;28;20395;-76
2021/07/09 09:29:06;;;;;;;10.82;7.07;;;;;7.60;101150.00;;;;5110152;28;20069;-76
2021/07/09 09:31:36;;;;;;;8.18;6.78;;;;;7.60;101180.00;;;;5108441;28;20098;-76
2021/07/09 09:34:04;;;;;;;10.63;7.32;;;;;7.60;101189.00;;;;5109282;28;20118;-76
2021/07/09 09:36:31;;;;;;;12.75;7.38;;;;;7.70;101170.00;;;;5110154;28;20035;-76
2021/07/09 09:39:04;;;;;;;9.65;7.95;;;;;7.70;101181.00;;;;5109149;28;20020;-77
2021/07/09 09:41:31;;;;;;;10.63;6.97;;;;;7.60;101171.00;;;;5109131;28;20061;-76
2021/07/09 09:44:14;;;;;;;10.65;8.18;;;;;7.60;101181.00;;;;5108451;28;20027;-76
2021/07/09 09:46:41;;;;;;;12.80;8.27;;;;;7.60;101191.00;;;;5108720;28;20038;-76
2021/07/09 09:49:16;;;;;;;13.32;9.38;;;;;7.60;101188.00;;;;5109124;28;20108;-76
2021/07/09 09:51:42;;;;;;;22.98;8.27;;;;;7.50;101165.00;;;;5110516;28;20042;-76
2021/07/09 09:54:10;;;;;;;10.35;8.18;;;;;7.50;101203.00;;;;5110432;28;20027;-76
2021/07/09 09:56:48;;;;;;;14.77;9.13;;;;;7.60;101178.00;;;;5108718;28;20038;-76
2021/07/09 09:59:22;;;;;;;18.85;9.55;;;;;7.60;101208.00;;;;5109080;28;20110;-76
2021/07/09 10:01:55;;;;;;;38.33;8.70;;;;;7.60;101215.00;;;;5108932;28;20032;-76
2021/07/09 10:04:24;;;;;;;39.75;9.55;;;;;7.70;101191.00;;;;5107841;28;20040;-76
2021/07/09 10:06:52;;;;;;;18.13;10.05;;;;;7.80;101183.00;;;;5108017;28;20031;-76
2021/07/09 10:09:19;;;;;;;54.90;10.77;;;;;7.80;101217.00;;;;5108836;28;20041;-76
2021/07/09 10:11:47;;;;;;;16.75;8.25;;;;;7.70;101181.00;;;;5109143;28;20107;-76
2021/07/09 10:14:15;;;;;;;21.80;8.93;;;;;7.60;101213.00;;;;5108734;28;20810;-76
2021/07/09 10:16:43;;;;;;;10.88;7.50;;;;;7.60;101196.00;;;;5108306;28;20019;-76
2021/07/09 10:19:17;;;;;;;11.02;7.45;;;;;7.50;101210.00;;;;5107857;28;20019;-76
2021/07/09 10:21:44;;;;;;;13.75;7.22;;;;;7.60;101198.00;;;;5108140;28;20073;-75
2021/07/09 10:24:16;;;;;;;12.20;7.20;;;;;7.50;101204.00;;;;5108364;28;20544;-76
2021/07/09 10:26:51;;;;;;;16.08;6.57;;;;;7.40;101187.00;;;;5108268;28;20028;-75
2021/07/09 10:29:20;;;;;;;12.38;6.82;;;;;7.50;101209.00;;;;5108393;28;20038;-76
2021/07/09 10:31:48;;;;;;;21.08;7.32;;;;;7.60;101213.00;;;;5107777;28;20028;-76
2021/07/09 10:34:34;;;;;;;13.63;6.63;;;;;7.70;101223.00;;;;5108229;28;20038;-76
2021/07/09 10:37:05;;;;;;;8.52;6.50;;;;;7.70;101224.00;;;;5105977;28;20114;-75
2021/07/09 10:39:41;;;;;;;20.23;7.38;;;;;7.70;101221.00;;;;5106377;28;20102;-75
2021/07/09 10:42:27;;;;;;;10.80;6.20;;;;;7.60;101228.00;;;;5106645;28;20024;-73
2021/07/09 10:45:00;;;;;;;17.00;8.02;;;;;7.70;101243.00;;;;5108693;28;20069;-75
2021/07/09 10:47:37;;;;;;;20.73;8.40;;;;;7.80;101249.00;;;;5107783;28;20086;-77
2021/07/09 10:50:06;;;;;;;23.13;9.45;;;;;8.00;101216.00;;;;5107801;28;20028;-75
2021/07/09 10:52:52;;;;;;;12.85;9.38;;;;;8.00;101268.00;;;;5107328;28;20486;-76
2021/07/09 10:55:25;;;;;;;15.10;9.60;;;;;8.10;101269.00;;;;5088907;28;20032;-71
2021/07/09 10:58:06;;;;;;;15.35;9.10;;;;;8.30;101256.00;;;;5107673;28;20461;-75
2021/07/09 11:01:04;;;;;;;21.00;10.27;;;;;9.00;101210.00;;;;5107294;28;20031;-75
2021/07/09 11:03:57;;;;;;;14.43;8.25;;;;;9.20;101251.00;;;;5106693;28;20044;-77
2021/07/09 11:06:38;;;;;;;21.35;8.75;;;;;9.20;101260.00;;;;5105681;28;20041;-77
2021/07/09 11:09:07;;;;;;;30.77;9.32;;;;;9.20;101269.00;;;;5105667;28;20043;-76
2021/07/09 11:11:43;;;;;;;85.28;8.90;;;;;9.20;101253.00;;;;5105992;28;20491;-78
2021/07/09 11:14:13;;;;;;;65.57;9.30;;;;;9.30;101265.00;;;;5106723;28;20352;-77
2021/07/09 11:16:43;;;;;;;54.50;10.30;;;;;9.50;101252.00;;;;5107272;28;20057;-78
2021/07/09 11:19:20;;;;;;;88.47;8.68;;;;;9.70;101245.00;;;;5106271;28;20080;-76
2021/07/09 11:21:52;;;;;;;69.57;8.30;;;;;10.90;101203.00;;;;5106526;28;20036;-76
2021/07/09 11:24:21;;;;;;;59.22;7.93;;;;;12.50;101184.00;;;;5106423;28;20037;-75
2021/07/09 11:26:49;;;;;;;53.30;6.63;;;;;14.30;101110.00;;;;5106211;28;20031;-76
2021/07/09 11:29:33;;;;;;;29.00;6.40;;;;;15.60;101155.00;;;;5106215;28;20490;-75
2021/07/09 11:32:01;;;;;;;26.10;5.97;;;;;15.20;101168.00;;;;5105342;28;20124;-75
2021/07/09 11:34:32;;;;;;;22.63;5.40;;;;;15.20;101147.00;;;;5105606;28;20473;-75
2021/07/09 11:37:03;;;;;;;4.85;4.00;;;;;16.20;101118.00;;;;5105570;28;20027;-75
2021/07/09 11:39:33;;;;;;;25.95;7.03;;;;;15.30;101193.00;;;;5106372;28;20058;-75
2021/07/09 11:42:07;;;;;;;35.53;5.93;;;;;14.00;101266.00;;;;5106214;28;20084;-75
2021/07/09 11:44:47;;;;;;;32.97;6.45;;;;;14.40;101206.00;;;;5106184;28;20015;-76
2021/07/09 11:47:22;;;;;;;28.40;7.75;;;;;15.40;101173.00;;;;5107026;28;20406;-76
2021/07/09 11:50:11;;;;;;;28.67;5.68;;;;;16.00;101145.00;;;;5106473;28;20020;-76
2021/07/09 11:52:40;;;;;;;14.38;6.68;;;;;17.00;101152.00;;;;5105771;28;20046;-75
2021/07/09 11:55:12;;;;;;;13.73;6.55;;;;;17.50;101091.00;;;;5105626;28;20513;-75
2021/07/09 11:57:42;;;;;;;13.73;6.45;;;;;17.80;101107.00;;;;5105951;28;20028;-75
2021/07/09 12:00:18;;;;;;;11.00;6.63;;;;;18.60;101129.00;;;;5106411;28;20031;-75
2021/07/09 12:02:46;;;;;;;10.25;6.28;;;;;18.30;101154.00;;;;5025515;28;2286014;-76
2021/07/09 12:05:15;;;;;;;21.55;6.90;;;;;18.50;101151.00;;;;5106228;28;20122;-76
2021/07/09 12:07:48;;;;;;;7.82;5.90;;;;;19.10;101143.00;;;;5106188;28;20116;-77